Time;durP1;ratioP1;P1;durP2;ratioP2;P2;SDS_P1;SDS_P2;PMS_P1;PMS_P2;Temp;Humidity;BMP_temperature;BMP_pressure;BME280_temperature;BME280_humidity;BME280_pressure;Samples;Min_cycle;Max_cycle;Signal;HPM_P1;HPM_P2
2022/02/15 00:00:31;;;;;;;10.07;3.00;;;7.60;89.50;;;;;;5077847;28;20051;-76
2022/02/15 00:02:56;;;;;;;8.43;2.95;;;7.50;89.40;;;;;;5077019;28;20155;-73
2022/02/15 00:05:22;;;;;;;10.15;2.92;;;7.50;89.40;;;;;;5070657;28;20046;-74
2022/02/15 00:07:48;;;;;;;9.05;3.08;;;7.50;90.00;;;;;;5088522;28;20039;-73
2022/02/15 00:10:16;;;;;;;8.48;3.30;;;7.50;89.50;;;;;;5078001;28;20056;-73
2022/02/15 00:12:42;;;;;;;8.90;3.50;;;7.50;89.60;;;;;;5085143;28;20483;-73
2022/02/15 00:15:08;;;;;;;9.85;4.20;;;7.50;89.60;;;;;;5074769;28;20040;-73
2022/02/15 00:17:35;;;;;;;9.93;3.58;;;7.50;89.70;;;;;;5084356;28;20039;-74
2022/02/15 00:20:01;;;;;;;7.53;3.72;;;7.50;89.70;;;;;;5105896;28;20036;-73
2022/02/15 00:22:27;;;;;;;11.40;3.55;;;7.50;89.70;;;;;;5075357;28;20127;-74
2022/02/15 00:24:52;;;;;;;11.90;4.15;;;7.50;89.80;;;;;;5072809;28;20044;-73
2022/02/15 00:27:18;;;;;;;10.43;3.83;;;7.50;89.80;;;;;;5091153;28;20109;-73
2022/02/15 00:29:44;;;;;;;8.05;3.50;;;7.50;89.90;;;;;;5090574;28;20134;-73
2022/02/15 00:32:09;;;;;;;7.43;3.78;;;7.40;89.90;;;;;;5076409;28;20373;-73
2022/02/15 00:34:35;;;;;;;12.32;4.07;;;7.50;89.90;;;;;;5068023;28;22213;-73
2022/02/15 00:37:01;;;;;;;9.80;4.60;;;7.40;89.90;;;;;;5043115;28;20048;-73
2022/02/15 00:39:27;;;;;;;8.43;4.07;;;7.40;90.00;;;;;;5098621;28;20626;-74
2022/02/15 00:41:53;;;;;;;12.68;4.38;;;7.40;90.00;;;;;;5079831;28;20122;-73
2022/02/15 00:44:18;;;;;;;10.38;4.75;;;7.50;90.00;;;;;;5080330;28;20073;-73
2022/02/15 00:46:45;;;;;;;13.35;4.35;;;7.40;90.00;;;;;;5050444;28;20639;-73
2022/02/15 00:49:11;;;;;;;9.52;4.32;;;7.50;90.00;;;;;;5043321;28;20061;-73
2022/02/15 00:51:36;;;;;;;10.68;3.88;;;7.40;90.00;;;;;;5055629;28;20597;-73
2022/02/15 00:54:02;;;;;;;14.65;4.70;;;7.50;90.00;;;;;;5056442;28;20040;-73
2022/02/15 00:56:28;;;;;;;9.98;4.05;;;7.50;90.00;;;;;;5039283;28;20048;-79
2022/02/15 00:58:54;;;;;;;12.63;5.22;;;7.50;90.40;;;;;;5072590;28;20053;-74
2022/02/15 01:01:19;;;;;;;11.50;5.28;;;7.50;90.10;;;;;;5058527;28;20473;-73
2022/02/15 01:03:45;;;;;;;11.85;4.13;;;7.50;90.10;;;;;;5072255;28;20074;-73
2022/02/15 01:06:11;;;;;;;9.13;4.82;;;7.50;90.10;;;;;;5056435;28;20557;-73
2022/02/15 01:08:36;;;;;;;7.88;4.13;;;7.50;90.10;;;;;;5022434;28;20135;-72
2022/02/15 01:11:02;;;;;;;11.55;4.38;;;7.50;90.10;;;;;;5092942;28;20052;-73
2022/02/15 01:13:28;;;;;;;12.90;4.97;;;7.50;90.20;;;;;;5079687;28;20082;-72
2022/02/15 01:15:53;;;;;;;9.10;4.05;;;7.50;90.20;;;;;;5112764;28;20055;-73
2022/02/15 01:18:20;;;;;;;10.18;4.88;;;7.50;90.20;;;;;;5096461;28;20048;-72
2022/02/15 01:20:46;;;;;;;12.07;5.10;;;7.50;90.30;;;;;;5062236;28;20049;-73
2022/02/15 01:23:12;;;;;;;11.32;4.78;;;7.50;90.30;;;;;;5095883;28;20048;-72
2022/02/15 01:25:38;;;;;;;13.70;5.45;;;7.50;90.30;;;;;;5105525;28;20165;-74
2022/02/15 01:28:04;;;;;;;12.20;6.07;;;7.50;90.30;;;;;;5096041;28;20090;-73
2022/02/15 01:30:30;;;;;;;11.30;5.50;;;7.50;90.30;;;;;;5078747;28;20115;-74
2022/02/15 01:32:55;;;;;;;13.63;5.72;;;7.50;90.40;;;;;;5095435;28;20036;-74
2022/02/15 01:35:21;;;;;;;13.40;5.45;;;7.50;90.40;;;;;;5078453;28;20055;-74
2022/02/15 01:37:47;;;;;;;12.45;5.60;;;7.50;90.40;;;;;;5074978;28;20054;-74
2022/02/15 01:40:13;;;;;;;9.50;5.07;;;7.50;90.40;;;;;;5075086;28;20040;-74
2022/02/15 01:42:38;;;;;;;12.00;5.53;;;7.50;90.40;;;;;;5075032;28;20051;-74
2022/02/15 01:45:05;;;;;;;12.40;6.22;;;7.50;90.40;;;;;;5075412;28;20048;-73
2022/02/15 01:47:31;;;;;;;12.75;5.63;;;7.50;90.50;;;;;;5075347;28;20113;-73
2022/02/15 01:49:57;;;;;;;10.57;5.88;;;7.50;90.50;;;;;;5074419;28;20518;-73
2022/02/15 01:52:23;;;;;;;14.18;6.75;;;7.50;90.50;;;;;;5058800;28;20434;-73
2022/02/15 01:54:50;;;;;;;14.73;5.65;;;7.50;90.60;;;;;;5091701;28;20047;-73
2022/02/15 01:57:16;;;;;;;12.85;5.50;;;7.50;90.60;;;;;;5075284;28;20048;-73
2022/02/15 01:59:43;;;;;;;15.95;6.30;;;7.50;90.50;;;;;;5057939;28;20091;-74
2022/02/15 02:02:09;;;;;;;11.68;5.78;;;7.60;90.50;;;;;;5075060;28;20506;-73
2022/02/15 02:07:19;;;;;;;11.05;6.28;;;7.50;90.50;;;;;;5077600;28;20047;-73
2022/02/15 02:09:45;;;;;;;13.98;6.45;;;7.50;90.50;;;;;;5074228;28;20494;-74
2022/02/15 02:12:10;;;;;;;15.88;6.15;;;7.50;90.60;;;;;;5058372;28;20048;-73
2022/02/15 02:14:36;;;;;;;13.43;6.53;;;7.50;90.60;;;;;;5058730;28;20458;-73
2022/02/15 02:17:02;;;;;;;12.88;6.55;;;7.50;90.60;;;;;;5057858;28;20056;-72
2022/02/15 02:19:27;;;;;;;12.32;7.78;;;7.50;90.60;;;;;;5058296;28;20047;-73
2022/02/15 02:21:54;;;;;;;11.70;6.85;;;7.50;90.60;;;;;;5090038;28;20040;-73
2022/02/15 02:24:19;;;;;;;12.70;6.93;;;7.50;90.60;;;;;;5074700;28;20382;-74
2022/02/15 02:26:45;;;;;;;11.98;5.97;;;7.50;91.00;;;;;;5073543;28;20055;-73
2022/02/15 02:29:11;;;;;;;11.63;6.65;;;7.50;90.70;;;;;;5074430;28;20076;-73
2022/02/15 02:31:36;;;;;;;14.88;6.65;;;7.50;90.70;;;;;;5091334;28;20040;-73
2022/02/15 02:34:02;;;;;;;14.00;6.20;;;7.50;90.70;;;;;;5073783;28;20063;-73
2022/02/15 02:36:28;;;;;;;12.43;5.80;;;7.50;90.70;;;;;;5108278;28;20040;-73
2022/02/15 02:38:53;;;;;;;13.48;6.15;;;7.60;90.70;;;;;;5040357;28;20044;-73
2022/02/15 02:41:19;;;;;;;15.77;6.93;;;7.50;90.70;;;;;;5074275;28;20039;-73
2022/02/15 02:43:45;;;;;;;12.82;7.05;;;7.60;90.80;;;;;;5057095;28;20094;-74
2022/02/15 02:46:10;;;;;;;13.23;6.70;;;7.50;90.80;;;;;;5057785;28;20468;-73
2022/02/15 02:48:36;;;;;;;11.75;5.65;;;7.50;90.70;;;;;;5074184;28;20051;-73
2022/02/15 02:51:02;;;;;;;15.30;7.13;;;7.50;90.80;;;;;;5073474;28;20500;-73
2022/02/15 02:53:28;;;;;;;14.40;6.88;;;7.50;90.80;;;;;;5108199;28;20047;-73
2022/02/15 02:55:54;;;;;;;12.48;6.30;;;7.50;90.80;;;;;;5073496;28;20044;-73
2022/02/15 02:58:19;;;;;;;11.40;5.93;;;7.50;90.80;;;;;;5074419;28;20408;-73
2022/02/15 03:00:45;;;;;;;16.13;6.97;;;7.50;90.90;;;;;;5073321;28;20139;-79
2022/02/15 03:03:11;;;;;;;15.13;5.97;;;7.50;90.90;;;;;;5074230;28;20059;-73
2022/02/15 03:05:36;;;;;;;13.60;5.60;;;7.50;90.90;;;;;;5090903;28;20067;-73
2022/02/15 03:08:02;;;;;;;13.70;5.68;;;7.50;90.80;;;;;;5040141;28;20044;-73
2022/02/15 03:10:28;;;;;;;15.10;6.60;;;7.50;90.90;;;;;;5057445;28;20047;-73
2022/02/15 03:12:53;;;;;;;11.35;5.90;;;7.50;90.90;;;;;;5056856;28;20369;-73
2022/02/15 03:15:19;;;;;;;14.50;5.57;;;7.50;90.90;;;;;;5090986;28;20104;-73
2022/02/15 03:17:45;;;;;;;14.50;6.40;;;7.50;90.90;;;;;;5090719;28;20514;-73
2022/02/15 03:20:11;;;;;;;16.92;6.72;;;7.50;90.90;;;;;;5073339;28;20036;-73
2022/02/15 03:22:36;;;;;;;11.43;5.07;;;7.50;90.90;;;;;;5040935;28;20100;-73
2022/02/15 03:25:02;;;;;;;16.30;6.35;;;7.50;90.90;;;;;;5125551;28;20104;-73
2022/02/15 03:27:28;;;;;;;12.25;6.13;;;7.50;90.90;;;;;;5111441;28;20047;-73
2022/02/15 03:29:54;;;;;;;13.05;6.28;;;7.50;90.90;;;;;;5076481;28;20595;-74
2022/02/15 03:32:19;;;;;;;15.05;6.65;;;7.50;90.90;;;;;;5058604;28;20067;-73
2022/02/15 03:34:45;;;;;;;12.70;6.18;;;7.50;90.90;;;;;;5057986;28;20056;-73
2022/02/15 03:37:11;;;;;;;16.05;6.00;;;7.50;91.00;;;;;;5073365;28;20181;-73
2022/02/15 03:39:37;;;;;;;14.32;6.45;;;7.50;91.00;;;;;;5057642;28;20055;-73
2022/02/15 03:45:08;;;;;;;13.52;5.60;;;7.50;91.10;;;;;;5056814;28;20146;-74
2022/02/15 03:47:34;;;;;;;14.80;6.03;;;7.50;91.10;;;;;;5073228;28;20195;-73
2022/02/15 03:49:59;;;;;;;13.48;6.90;;;7.50;91.10;;;;;;5091621;27;20051;-73
2022/02/15 03:52:25;;;;;;;15.88;6.70;;;7.40;91.10;;;;;;5080866;28;20126;-73
2022/02/15 03:54:51;;;;;;;13.52;6.60;;;7.50;91.10;;;;;;5114468;28;20048;-78
2022/02/15 03:57:16;;;;;;;15.70;6.97;;;7.50;91.20;;;;;;5114343;28;20492;-74
2022/02/15 03:59:42;;;;;;;13.45;6.57;;;7.40;91.20;;;;;;5073167;28;20056;-74
2022/02/15 04:02:08;;;;;;;15.00;6.95;;;7.50;91.20;;;;;;5060421;28;20476;-74
2022/02/15 04:04:33;;;;;;;12.80;6.40;;;7.40;91.30;;;;;;5094227;28;20097;-73
2022/02/15 04:06:59;;;;;;;15.20;7.05;;;7.40;91.30;;;;;;5060037;28;20487;-73
2022/02/15 04:09:25;;;;;;;18.00;7.20;;;7.40;91.30;;;;;;5077637;28;20399;-73
2022/02/15 04:11:51;;;;;;;14.65;7.35;;;7.40;91.30;;;;;;5095387;28;20518;-73
2022/02/15 04:14:16;;;;;;;15.32;7.28;;;7.40;91.30;;;;;;5060142;28;20466;-74
2022/02/15 04:16:42;;;;;;;15.75;6.50;;;7.40;91.40;;;;;;5077292;28;20091;-74
2022/02/15 04:19:08;;;;;;;13.90;7.88;;;7.40;91.40;;;;;;5076638;28;20044;-74
2022/02/15 04:21:33;;;;;;;13.43;6.75;;;7.40;91.30;;;;;;5076576;28;20040;-73
2022/02/15 04:23:59;;;;;;;13.82;7.00;;;7.40;91.30;;;;;;5110640;28;20040;-74
2022/02/15 04:26:25;;;;;;;14.93;7.57;;;7.40;91.40;;;;;;5077117;28;20044;-75
2022/02/15 04:28:51;;;;;;;14.35;6.47;;;7.40;91.40;;;;;;5044075;28;20059;-73
2022/02/15 04:31:16;;;;;;;17.73;7.20;;;7.30;91.40;;;;;;5076126;28;20135;-73
2022/02/15 04:33:42;;;;;;;14.45;7.68;;;7.40;91.40;;;;;;5093815;28;20052;-73
2022/02/15 04:36:07;;;;;;;16.08;7.55;;;7.40;91.40;;;;;;5076046;28;20468;-73
2022/02/15 04:38:33;;;;;;;17.48;8.07;;;7.40;91.40;;;;;;5060222;28;20043;-74
2022/02/15 04:40:59;;;;;;;15.80;7.97;;;7.30;91.40;;;;;;5076258;28;20442;-80
2022/02/15 04:43:25;;;;;;;16.60;8.43;;;7.30;91.40;;;;;;5076400;28;20393;-73
2022/02/15 04:45:51;;;;;;;21.45;9.35;;;7.40;91.40;;;;;;5043176;28;20048;-73
2022/02/15 04:48:17;;;;;;;21.92;8.65;;;7.30;91.50;;;;;;5059423;28;20377;-73
2022/02/15 04:50:43;;;;;;;18.67;7.88;;;7.40;91.50;;;;;;5093265;28;20093;-73
2022/02/15 04:53:11;;;;;;;20.15;10.13;;;7.30;91.50;;;;;;5092742;28;20070;-73
2022/02/15 04:55:36;;;;;;;18.02;9.57;;;7.40;91.50;;;;;;5076416;28;20438;-74
2022/02/15 04:58:02;;;;;;;16.92;9.55;;;7.30;91.50;;;;;;5059332;28;20048;-79
2022/02/15 05:00:28;;;;;;;24.25;10.80;;;7.30;91.40;;;;;;5076014;28;20059;-73
2022/02/15 05:02:53;;;;;;;26.52;10.75;;;7.30;91.50;;;;;;5076549;28;20043;-73
2022/02/15 05:05:19;;;;;;;20.08;9.82;;;7.30;91.50;;;;;;5075859;28;20128;-73
2022/02/15 05:07:45;;;;;;;18.88;10.38;;;7.30;91.50;;;;;;5076059;28;20050;-73
2022/02/15 05:10:10;;;;;;;20.65;10.05;;;7.30;91.50;;;;;;5075883;28;20093;-74
2022/02/15 05:12:37;;;;;;;18.85;10.38;;;7.40;91.50;;;;;;5092932;28;20158;-73
2022/02/15 05:15:09;;;;;;;22.25;11.18;;;7.40;91.50;;;;;;5076390;28;20389;-79
2022/02/15 05:17:37;;;;;;;22.50;12.13;;;7.30;91.50;;;;;;5076977;28;20048;-73
2022/02/15 05:20:04;;;;;;;21.50;11.35;;;7.30;91.50;;;;;;5092766;28;20498;-76
2022/02/15 05:22:30;;;;;;;24.80;12.68;;;7.40;91.50;;;;;;5075745;28;20499;-73
2022/02/15 05:24:55;;;;;;;25.35;12.18;;;7.30;91.50;;;;;;5076109;28;20044;-73
2022/02/15 05:27:21;;;;;;;21.85;11.63;;;7.30;91.50;;;;;;5058698;28;20044;-73
2022/02/15 05:29:47;;;;;;;24.90;11.35;;;7.30;91.50;;;;;;5075917;28;20058;-73
2022/02/15 05:32:12;;;;;;;23.75;12.73;;;7.30;91.50;;;;;;5075270;28;20131;-74
2022/02/15 05:34:38;;;;;;;22.58;11.30;;;7.30;91.50;;;;;;5092525;28;20054;-73
2022/02/15 05:37:04;;;;;;;22.23;12.38;;;7.30;91.50;;;;;;5075675;28;20082;-73
2022/02/15 05:39:30;;;;;;;21.70;12.07;;;7.20;91.50;;;;;;5091705;28;20127;-74
2022/02/15 05:41:56;;;;;;;26.38;11.20;;;7.30;91.50;;;;;;5059153;28;20079;-73
2022/02/15 05:44:22;;;;;;;21.27;12.00;;;7.30;91.60;;;;;;5075131;28;20044;-73
2022/02/15 05:46:48;;;;;;;22.38;13.35;;;7.30;91.60;;;;;;5059136;28;20054;-73
2022/02/15 05:49:13;;;;;;;20.98;12.85;;;7.20;91.60;;;;;;5041855;28;20534;-73
2022/02/15 05:51:39;;;;;;;22.67;12.90;;;7.20;91.60;;;;;;5075707;28;20341;-73
2022/02/15 05:54:05;;;;;;;30.60;14.13;;;7.20;91.60;;;;;;5091933;28;20476;-73
2022/02/15 05:56:32;;;;;;;24.17;12.75;;;7.20;91.60;;;;;;5081489;28;20127;-74
2022/02/15 05:58:58;;;;;;;27.48;13.65;;;7.20;91.60;;;;;;5058867;28;20052;-73
2022/02/15 06:01:24;;;;;;;20.25;12.10;;;7.20;91.60;;;;;;5048963;28;20067;-74
2022/02/15 06:06:37;;;;;;;25.52;13.35;;;7.20;91.60;;;;;;5079433;28;20052;-73
2022/02/15 06:09:05;;;;;;;28.33;13.48;;;7.20;91.60;;;;;;5055272;28;20067;-73
2022/02/15 06:11:31;;;;;;;24.55;13.38;;;7.20;91.60;;;;;;5060878;28;20044;-73
2022/02/15 06:13:57;;;;;;;23.55;12.95;;;7.20;91.60;;;;;;5076341;28;20063;-74
2022/02/15 06:16:26;;;;;;;25.83;13.23;;;7.20;91.60;;;;;;5072708;28;20040;-74
2022/02/15 06:18:55;;;;;;;31.13;14.68;;;7.20;91.60;;;;;;5074841;28;20051;-74
2022/02/15 06:21:20;;;;;;;25.23;15.07;;;7.20;91.60;;;;;;5073962;28;20055;-73
2022/02/15 06:23:46;;;;;;;27.95;15.77;;;7.20;91.60;;;;;;5037821;28;20048;-73
2022/02/15 06:26:12;;;;;;;29.33;15.70;;;7.20;91.60;;;;;;5055399;28;20484;-79
2022/02/15 06:28:37;;;;;;;30.50;16.42;;;7.20;91.60;;;;;;5091617;28;20055;-74
2022/02/15 06:31:03;;;;;;;25.00;16.90;;;7.20;91.60;;;;;;5057575;28;20047;-74
2022/02/15 06:33:29;;;;;;;31.20;18.35;;;7.20;91.60;;;;;;5076352;28;20047;-74
2022/02/15 06:35:54;;;;;;;30.52;17.88;;;7.20;91.60;;;;;;5089568;28;20051;-74
2022/02/15 06:38:20;;;;;;;27.27;16.85;;;7.20;91.70;;;;;;5090519;28;20051;-74
2022/02/15 06:40:46;;;;;;;34.13;19.05;;;7.20;91.70;;;;;;5077360;28;20039;-74
2022/02/15 06:43:11;;;;;;;33.40;17.98;;;7.20;91.70;;;;;;5068139;28;20055;-74
2022/02/15 06:45:38;;;;;;;30.35;18.52;;;7.20;91.70;;;;;;5066905;28;20131;-73
2022/02/15 06:48:04;;;;;;;31.15;17.92;;;7.20;91.70;;;;;;5054525;28;20151;-73
2022/02/15 06:50:30;;;;;;;29.10;19.05;;;7.20;91.80;;;;;;5065985;28;20064;-73
2022/02/15 06:52:56;;;;;;;37.28;19.00;;;7.20;91.80;;;;;;5074960;28;20058;-75
2022/02/15 06:55:22;;;;;;;29.27;18.10;;;7.20;91.80;;;;;;5053603;28;20052;-75
2022/02/15 06:57:48;;;;;;;35.47;17.40;;;7.20;91.80;;;;;;5050919;28;20055;-74
2022/02/15 07:00:14;;;;;;;24.27;12.63;;;7.20;91.90;;;;;;5069802;28;20132;-75
2022/02/15 07:02:39;;;;;;;34.95;18.63;;;7.30;92.00;;;;;;5050560;28;20048;-79
2022/02/15 07:05:06;;;;;;;35.28;20.27;;;7.40;92.00;;;;;;5074666;28;20135;-75
2022/02/15 07:07:33;;;;;;;34.20;19.52;;;7.40;91.80;;;;;;5085548;28;20535;-75
2022/02/15 07:09:59;;;;;;;32.33;19.13;;;7.40;91.80;;;;;;5039705;28;20044;-74
2022/02/15 07:12:24;;;;;;;35.47;21.15;;;7.40;91.80;;;;;;5063081;28;20048;-74
2022/02/15 07:14:53;;;;;;;28.00;18.33;;;7.40;91.90;;;;;;5078439;28;20102;-75
2022/02/15 07:17:19;;;;;;;30.00;18.80;;;7.50;92.00;;;;;;5078355;28;20040;-75
2022/02/15 07:19:44;;;;;;;34.47;20.80;;;7.50;91.90;;;;;;5073990;28;20113;-75
2022/02/15 07:22:17;;;;;;;30.48;20.17;;;7.50;91.80;;;;;;5041012;28;20140;-74
2022/02/15 07:24:43;;;;;;;32.65;18.55;;;7.50;91.80;;;;;;5073918;28;20418;-74
2022/02/15 07:27:09;;;;;;;30.17;18.83;;;7.50;91.80;;;;;;5091406;28;20043;-74
2022/02/15 07:29:34;;;;;;;33.72;20.48;;;7.50;92.20;;;;;;5074153;28;20472;-74
2022/02/15 07:32:00;;;;;;;29.00;18.52;;;7.50;91.80;;;;;;5074428;28;20051;-74
2022/02/15 07:34:26;;;;;;;34.22;19.73;;;7.50;91.80;;;;;;5090863;28;20076;-75
2022/02/15 07:36:51;;;;;;;33.92;19.52;;;7.50;91.80;;;;;;5074497;28;20052;-74
2022/02/15 07:39:17;;;;;;;36.83;19.67;;;7.50;91.80;;;;;;5074188;28;20112;-75
2022/02/15 07:41:43;;;;;;;35.53;20.55;;;7.50;91.80;;;;;;5073649;28;20152;-75
2022/02/15 07:44:08;;;;;;;38.70;21.20;;;7.50;91.80;;;;;;5092266;28;20384;-75
2022/02/15 07:46:34;;;;;;;38.53;20.38;;;7.50;91.80;;;;;;5073774;28;20071;-75
2022/02/15 07:49:00;;;;;;;38.08;19.77;;;7.60;91.80;;;;;;5074334;28;20181;-75
2022/02/15 07:51:25;;;;;;;34.35;19.65;;;7.60;91.80;;;;;;5057208;28;20044;-75
2022/02/15 07:53:51;;;;;;;33.33;20.05;;;7.60;91.80;;;;;;5074284;28;20048;-74
2022/02/15 07:56:17;;;;;;;29.15;18.90;;;7.70;91.80;;;;;;5091020;28;20426;-75
2022/02/15 07:58:43;;;;;;;34.08;19.30;;;7.60;91.70;;;;;;5056731;28;20059;-74
2022/02/15 08:01:08;;;;;;;34.10;19.77;;;7.60;91.70;;;;;;5073768;28;20090;-74
2022/02/15 08:03:34;;;;;;;32.03;19.13;;;7.70;91.70;;;;;;5090083;28;20097;-74
2022/02/15 08:06:00;;;;;;;35.30;20.38;;;7.70;91.70;;;;;;5074184;28;20127;-74
2022/02/15 08:08:26;;;;;;;30.08;19.25;;;7.70;92.10;;;;;;5074079;28;20039;-79
2022/02/15 08:10:55;;;;;;;33.17;19.92;;;7.70;91.80;;;;;;5074161;28;20098;-74
2022/02/15 08:13:22;;;;;;;32.33;19.35;;;7.70;91.80;;;;;;5074791;28;20105;-74
2022/02/15 08:15:51;;;;;;;33.42;19.17;;;7.70;91.70;;;;;;5090467;28;20083;-76
2022/02/15 08:18:17;;;;;;;36.25;19.90;;;7.70;91.70;;;;;;5057843;28;20060;-74
2022/02/15 08:20:42;;;;;;;34.72;19.35;;;7.70;91.70;;;;;;5076523;28;20365;-75
2022/02/15 08:23:10;;;;;;;31.17;19.75;;;7.80;91.70;;;;;;5077873;28;20044;-75
2022/02/15 08:25:35;;;;;;;32.33;18.85;;;7.80;91.70;;;;;;5077388;28;20040;-75
2022/02/15 08:28:01;;;;;;;29.85;19.08;;;7.80;91.70;;;;;;5094445;28;20051;-74
2022/02/15 08:30:27;;;;;;;40.88;20.33;;;7.90;91.70;;;;;;5095253;28;20543;-75
2022/02/15 08:32:52;;;;;;;29.40;18.13;;;7.90;91.70;;;;;;5060355;28;20040;-74
2022/02/15 08:35:19;;;;;;;33.90;19.45;;;7.90;91.70;;;;;;5077395;28;20055;-75
2022/02/15 08:37:45;;;;;;;32.83;18.65;;;8.00;91.60;;;;;;5076765;28;20496;-74
2022/02/15 08:40:12;;;;;;;34.63;18.80;;;8.00;91.60;;;;;;5077257;28;20103;-74
2022/02/15 08:42:38;;;;;;;32.17;19.30;;;8.00;91.60;;;;;;5060696;28;20048;-75
2022/02/15 08:45:07;;;;;;;27.70;17.55;;;8.10;91.60;;;;;;5076945;28;20052;-74
2022/02/15 08:47:33;;;;;;;32.20;19.10;;;8.10;91.60;;;;;;5077072;28;20104;-75
2022/02/15 08:49:58;;;;;;;36.58;17.15;;;8.20;91.60;;;;;;5044175;28;20464;-75
2022/02/15 08:52:24;;;;;;;30.48;17.17;;;8.30;91.50;;;;;;5077327;28;20043;-76
2022/02/15 08:54:54;;;;;;;28.63;17.13;;;8.30;91.50;;;;;;5076636;28;20055;-75
2022/02/15 08:57:20;;;;;;;33.40;17.15;;;8.30;91.50;;;;;;5060351;28;20055;-75
2022/02/15 08:59:53;;;;;;;31.95;15.88;;;8.40;91.40;;;;;;5059593;28;20090;-75
2022/02/15 09:02:23;;;;;;;28.67;16.80;;;8.40;91.30;;;;;;5061306;28;20534;-75
2022/02/15 09:04:49;;;;;;;26.38;14.02;;;8.50;91.30;;;;;;5044040;28;20040;-76
2022/02/15 09:07:14;;;;;;;27.67;15.60;;;8.50;91.30;;;;;;5074703;28;20399;-76
2022/02/15 09:09:40;;;;;;;24.25;15.98;;;8.60;91.20;;;;;;5091119;28;20043;-76
2022/02/15 09:12:06;;;;;;;27.30;15.52;;;8.60;91.10;;;;;;5108921;28;20134;-76
2022/02/15 09:14:32;;;;;;;29.05;15.27;;;8.70;91.00;;;;;;5069353;28;20043;-76
2022/02/15 09:17:06;;;;;;;24.13;13.30;;;8.70;90.90;;;;;;5100181;28;20046;-79
2022/02/15 09:19:34;;;;;;;23.60;13.95;;;8.70;90.80;;;;;;5079190;28;20048;-76
2022/02/15 09:21:59;;;;;;;22.10;13.63;;;8.80;90.70;;;;;;5059706;28;20048;-76
2022/02/15 09:24:26;;;;;;;23.95;12.65;;;8.90;90.60;;;;;;5092691;28;20535;-77
2022/02/15 09:26:52;;;;;;;21.60;11.93;;;8.90;90.50;;;;;;5075991;28;20185;-76
2022/02/15 09:29:18;;;;;;;22.38;12.20;;;9.00;90.40;;;;;;5075812;28;20127;-76
2022/02/15 09:31:43;;;;;;;23.95;11.75;;;9.00;90.30;;;;;;5075135;28;20503;-76
2022/02/15 09:34:09;;;;;;;18.42;11.00;;;9.00;90.20;;;;;;5076755;28;20044;-75
2022/02/15 09:36:35;;;;;;;21.10;10.77;;;9.00;90.10;;;;;;5065093;28;20408;-74
2022/02/15 09:39:02;;;;;;;21.55;10.20;;;9.10;90.10;;;;;;5059568;28;20044;-74
2022/02/15 09:41:33;;;;;;;19.40;11.80;;;9.00;90.00;;;;;;5092365;28;20385;-74
2022/02/15 09:43:59;;;;;;;24.13;10.88;;;9.10;89.90;;;;;;5076433;28;20149;-76
2022/02/15 09:46:25;;;;;;;25.85;11.45;;;9.00;89.80;;;;;;5076060;28;20047;-75
2022/02/15 09:48:50;;;;;;;26.25;11.82;;;9.10;89.90;;;;;;5075566;28;20036;-76
2022/02/15 09:51:18;;;;;;;22.35;10.48;;;9.10;89.70;;;;;;5076030;28;20115;-75
2022/02/15 09:53:44;;;;;;;20.50;9.93;;;9.20;89.70;;;;;;5092278;28;20044;-76
2022/02/15 09:56:10;;;;;;;21.08;10.43;;;9.30;89.40;;;;;;5059164;28;20388;-76
2022/02/15 09:58:36;;;;;;;22.42;9.18;;;9.30;89.10;;;;;;5092993;28;20105;-77
2022/02/15 10:01:02;;;;;;;18.85;10.02;;;9.40;88.80;;;;;;5058298;28;20556;-76
2022/02/15 10:03:27;;;;;;;19.50;9.00;;;9.50;89.30;;;;;;5075589;28;20052;-75
2022/02/15 10:05:53;;;;;;;21.02;9.20;;;9.50;88.30;;;;;;5077553;28;20044;-76
2022/02/15 10:08:29;;;;;;;19.75;8.85;;;9.50;87.90;;;;;;5092031;28;20074;-75
2022/02/15 10:10:55;;;;;;;16.65;7.47;;;9.60;87.70;;;;;;5075751;28;20124;-76
2022/02/15 10:13:21;;;;;;;19.40;8.05;;;9.60;87.30;;;;;;5079325;28;20123;-75
2022/02/15 10:15:48;;;;;;;17.60;7.85;;;9.70;87.00;;;;;;5074036;28;20445;-75
2022/02/15 10:18:25;;;;;;;13.20;7.10;;;9.70;86.80;;;;;;5092877;28;20047;-77
2022/02/15 10:20:56;;;;;;;15.35;7.05;;;9.80;86.30;;;;;;5071939;28;20040;-77
2022/02/15 10:23:28;;;;;;;13.50;7.47;;;9.90;86.10;;;;;;5058484;28;20446;-77
2022/02/15 10:25:53;;;;;;;15.73;6.55;;;9.90;85.90;;;;;;5058775;28;20127;-76
2022/02/15 10:28:21;;;;;;;17.02;7.22;;;9.90;85.90;;;;;;5066285;28;20135;-76
2022/02/15 10:30:51;;;;;;;17.58;6.78;;;10.00;85.80;;;;;;5088679;27;20138;-77
2022/02/15 10:33:19;;;;;;;16.88;7.72;;;10.00;85.30;;;;;;5070252;28;20492;-77
2022/02/15 10:35:59;;;;;;;18.17;7.53;;;10.00;85.10;;;;;;5043231;28;20045;-78
2022/02/15 10:38:29;;;;;;;17.38;7.13;;;10.10;85.00;;;;;;5082238;28;20051;-78
2022/02/15 10:41:16;;;;;;;16.50;6.43;;;10.10;84.80;;;;;;5062274;28;20040;-76
2022/02/15 10:43:45;;;;;;;10.65;6.47;;;10.10;84.30;;;;;;5074962;28;20052;-76
2022/02/15 10:46:12;;;;;;;15.35;7.05;;;10.20;84.30;;;;;;5091046;28;20044;-75
2022/02/15 10:48:37;;;;;;;18.27;7.70;;;10.20;84.10;;;;;;5075341;28;20059;-75
2022/02/15 10:51:03;;;;;;;16.40;6.78;;;10.20;84.00;;;;;;5076308;28;20048;-77
2022/02/15 10:53:30;;;;;;;11.50;5.60;;;10.10;83.90;;;;;;5066759;28;20043;-76
2022/02/15 10:55:57;;;;;;;12.30;6.20;;;10.10;83.60;;;;;;5094114;28;20391;-76
2022/02/15 10:58:23;;;;;;;15.55;6.90;;;10.10;83.40;;;;;;5080124;28;20476;-78
2022/02/15 11:00:50;;;;;;;10.82;5.00;;;10.10;83.20;;;;;;5066969;28;20054;-77
2022/02/15 11:03:21;;;;;;;12.80;5.80;;;10.20;83.30;;;;;;5052965;28;20043;-74
2022/02/15 11:05:48;;;;;;;11.77;5.25;;;10.30;82.80;;;;;;5054048;28;20059;-74
2022/02/15 11:08:14;;;;;;;12.30;5.20;;;10.40;82.00;;;;;;5073166;28;20043;-74
2022/02/15 11:10:46;;;;;;;12.82;4.90;;;10.40;81.40;;;;;;5095186;28;20130;-75
2022/02/15 11:13:12;;;;;;;14.00;4.85;;;10.40;80.80;;;;;;5078105;28;20044;-75
2022/02/15 11:15:40;;;;;;;8.80;4.40;;;10.40;80.80;;;;;;5094516;28;20368;-74
2022/02/15 11:18:07;;;;;;;8.13;4.25;;;10.30;80.40;;;;;;5094785;28;20066;-74
2022/02/15 11:23:40;;;;;;;10.30;4.05;;;10.20;79.60;;;;;;5064516;28;20055;-73
2022/02/15 11:26:17;;;;;;;9.65;3.83;;;10.20;79.80;;;;;;5077847;28;20051;-73
2022/02/15 11:28:49;;;;;;;15.00;4.28;;;10.20;79.20;;;;;;5095031;28;20043;-74
2022/02/15 11:31:34;;;;;;;7.40;3.83;;;10.20;79.20;;;;;;5087986;28;20051;-73
2022/02/15 11:34:04;;;;;;;12.25;4.82;;;10.30;78.80;;;;;;5059193;28;20043;-74
2022/02/15 11:36:30;;;;;;;9.23;4.78;;;10.70;78.20;;;;;;5080885;28;20047;-74
2022/02/15 11:38:57;;;;;;;12.23;5.20;;;11.20;77.00;;;;;;5099731;28;20377;-74
2022/02/15 11:41:24;;;;;;;9.40;5.22;;;11.80;75.00;;;;;;5074102;28;20051;-75
2022/02/15 11:43:56;;;;;;;11.43;5.38;;;12.50;73.30;;;;;;5067768;28;20039;-76
2022/02/15 11:46:35;;;;;;;9.70;5.63;;;12.90;71.70;;;;;;5094225;28;20048;-77
2022/02/15 11:49:14;;;;;;;11.13;5.07;;;12.90;70.70;;;;;;5060999;28;20052;-77
2022/02/15 11:51:41;;;;;;;8.88;5.20;;;12.70;70.50;;;;;;5069189;28;20052;-77
2022/02/15 11:54:14;;;;;;;7.32;4.00;;;12.50;70.90;;;;;;5078945;28;20113;-76
2022/02/15 11:56:45;;;;;;;12.20;5.22;;;12.30;72.00;;;;;;5097577;28;20049;-76
2022/02/15 11:59:15;;;;;;;7.93;3.92;;;13.00;71.90;;;;;;5058805;28;20135;-75
2022/02/15 12:01:42;;;;;;;6.80;3.30;;;14.30;70.20;;;;;;5087911;28;20369;-79
2022/02/15 12:04:10;;;;;;;7.78;2.90;;;15.10;66.30;;;;;;5057689;28;20040;-74
2022/02/15 12:06:47;;;;;;;6.75;2.72;;;15.90;63.70;;;;;;5061512;28;20048;-75
2022/02/15 12:09:14;;;;;;;9.88;3.08;;;16.10;61.50;;;;;;5082216;28;20059;-75
2022/02/15 12:11:41;;;;;;;6.05;3.00;;;15.90;60.50;;;;;;5059890;28;20098;-76
2022/02/15 12:14:13;;;;;;;7.25;3.00;;;15.80;60.10;;;;;;5056370;28;20098;-76
2022/02/15 12:16:45;;;;;;;10.95;2.80;;;15.60;59.90;;;;;;5052609;28;20117;-74
2022/02/15 12:19:36;;;;;;;6.78;2.60;;;15.40;59.50;;;;;;5113096;27;20040;-81
2022/02/15 12:22:05;;;;;;;9.95;3.17;;;15.40;60.60;;;;;;5059635;28;20044;-80
2022/02/15 12:24:31;;;;;;;6.20;2.88;;;15.10;61.10;;;;;;5040649;28;20045;-77
2022/02/15 12:27:03;;;;;;;7.18;3.13;;;15.10;60.90;;;;;;5057454;28;20424;-76
2022/02/15 12:29:29;;;;;;;11.25;3.58;;;15.70;60.10;;;;;;5074671;28;20045;-76
2022/02/15 12:32:09;;;;;;;8.68;2.45;;;16.50;58.90;;;;;;5040793;28;20113;-75
2022/02/15 12:34:35;;;;;;;7.25;2.60;;;17.40;55.70;;;;;;5073978;28;20503;-76
2022/02/15 12:37:01;;;;;;;5.13;2.75;;;17.90;54.70;;;;;;5040849;28;20131;-75
2022/02/15 12:39:35;;;;;;;6.00;2.53;;;18.30;53.30;;;;;;5057020;28;20088;-76
2022/02/15 12:42:12;;;;;;;6.43;2.78;;;18.80;51.80;;;;;;5057240;28;20049;-77
2022/02/15 12:44:39;;;;;;;7.22;1.90;;;19.10;50.80;;;;;;5041076;28;20040;-74
2022/02/15 12:47:05;;;;;;;7.97;2.30;;;19.40;50.80;;;;;;5040523;28;20106;-76
2022/02/15 12:49:31;;;;;;;7.85;3.13;;;19.50;49.90;;;;;;5073804;28;20097;-77
2022/02/15 12:52:00;;;;;;;5.32;2.47;;;19.50;48.90;;;;;;5040687;28;20044;-76